Time;durP1;ratioP1;P1;durP2;ratioP2;P2;SDS_P1;SDS_P2;PMS_P1;PMS_P2;Temp;Humidity;BMP_temperature;BMP_pressure;BME280_temperature;BME280_humidity;BME280_pressure;Samples;Min_cycle;Max_cycle;Signal;HPM_P1;HPM_P2
2021/04/18 00:01:11;;;;;;;6.68;2.85;;;4.80;99.90;;;;;;5055528;28;20099;-72
2021/04/18 00:03:37;;;;;;;5.88;3.13;;;4.90;99.90;;;;;;5053889;28;20058;-69
2021/04/18 00:06:05;;;;;;;4.93;3.00;;;4.90;99.90;;;;;;5052630;28;20052;-71
2021/04/18 00:08:31;;;;;;;10.68;3.55;;;4.90;99.90;;;;;;5051445;28;20446;-71
2021/04/18 00:10:58;;;;;;;5.15;2.40;;;5.00;99.90;;;;;;5050931;28;20061;-65
2021/04/18 00:13:24;;;;;;;4.68;1.95;;;5.00;99.90;;;;;;5052672;28;20059;-65
2021/04/18 00:15:50;;;;;;;5.53;3.05;;;5.00;99.90;;;;;;5051543;28;20117;-68
2021/04/18 00:18:17;;;;;;;6.13;2.70;;;5.00;99.90;;;;;;5052269;28;20052;-70
2021/04/18 00:20:44;;;;;;;8.35;3.40;;;5.00;99.90;;;;;;5050406;28;20060;-67
2021/04/18 00:23:10;;;;;;;6.55;3.65;;;5.10;99.90;;;;;;5052104;28;20942;-69
2021/04/18 00:25:37;;;;;;;10.77;3.53;;;5.10;99.90;;;;;;5051855;28;20048;-71
2021/04/18 00:28:04;;;;;;;3.88;2.70;;;5.10;99.90;;;;;;5051766;28;20114;-68
2021/04/18 00:30:30;;;;;;;4.13;2.47;;;5.20;99.90;;;;;;5053221;28;20146;-66
2021/04/18 00:32:59;;;;;;;3.72;2.42;;;5.20;99.90;;;;;;5054772;28;20056;-67
2021/04/18 00:35:26;;;;;;;4.90;2.80;;;5.20;99.90;;;;;;5056725;28;20152;-71
2021/04/18 00:37:52;;;;;;;4.65;2.20;;;5.30;99.90;;;;;;5055435;28;20051;-67
2021/04/18 00:40:21;;;;;;;6.20;2.38;;;5.30;99.90;;;;;;5057023;28;20453;-68
2021/04/18 00:42:48;;;;;;;4.07;2.42;;;5.30;99.90;;;;;;5051558;28;20139;-68
2021/04/18 00:45:15;;;;;;;8.90;2.65;;;5.30;99.90;;;;;;5051119;28;20075;-68
2021/04/18 00:47:44;;;;;;;3.72;2.20;;;5.30;99.90;;;;;;5051405;28;20048;-67
2021/04/18 00:50:14;;;;;;;6.80;2.60;;;5.30;99.90;;;;;;5050767;28;21442;-67
2021/04/18 00:52:40;;;;;;;4.07;2.13;;;5.30;99.90;;;;;;5053954;28;20304;-65
2021/04/18 00:55:08;;;;;;;4.28;2.03;;;5.20;99.90;;;;;;5056180;28;20063;-71
2021/04/18 00:57:35;;;;;;;7.00;1.92;;;5.20;99.90;;;;;;5055410;28;20063;-66
2021/04/18 01:00:05;;;;;;;7.13;1.92;;;5.20;99.90;;;;;;5054880;28;20135;-70
2021/04/18 01:02:32;;;;;;;5.78;2.45;;;5.20;99.90;;;;;;5055687;28;20056;-68
2021/04/18 01:04:58;;;;;;;8.30;2.33;;;5.20;99.90;;;;;;5050812;28;20098;-72
2021/04/18 01:07:26;;;;;;;8.25;2.70;;;5.20;99.90;;;;;;5053361;28;20048;-71
2021/04/18 01:09:53;;;;;;;4.43;2.25;;;5.20;99.90;;;;;;5053714;28;20793;-72
2021/04/18 01:12:22;;;;;;;4.65;2.25;;;5.20;99.90;;;;;;5050791;28;20131;-68
2021/04/18 01:14:48;;;;;;;7.78;2.20;;;5.20;99.90;;;;;;5049116;28;20076;-69
2021/04/18 01:17:15;;;;;;;5.00;2.92;;;5.20;99.90;;;;;;5051224;28;20784;-69
2021/04/18 01:19:42;;;;;;;3.35;2.55;;;5.20;99.90;;;;;;5051468;28;20056;-67
2021/04/18 01:22:09;;;;;;;3.35;2.45;;;5.20;99.90;;;;;;5051404;28;20057;-70
2021/04/18 01:25:04;;;;;;;10.25;2.75;;;5.10;99.90;;;;;;5047048;28;20136;-67
2021/04/18 01:27:39;;;;;;;6.68;3.17;;;5.10;99.90;;;;;;5055570;28;20151;-65
2021/04/18 01:30:10;;;;;;;6.80;2.40;;;5.10;99.90;;;;;;5051421;28;20052;-72
2021/04/18 01:32:43;;;;;;;6.80;2.55;;;5.10;99.90;;;;;;5048853;28;20114;-71
2021/04/18 01:35:10;;;;;;;7.43;2.70;;;5.00;99.90;;;;;;5051065;28;20131;-68
2021/04/18 01:37:37;;;;;;;4.07;3.03;;;5.00;99.90;;;;;;5053685;28;20045;-70
2021/04/18 01:40:06;;;;;;;6.03;2.67;;;5.10;99.90;;;;;;5055075;28;20540;-69
2021/04/18 01:42:34;;;;;;;5.03;3.42;;;5.00;99.90;;;;;;5037724;28;20516;-70
2021/04/18 01:45:01;;;;;;;5.18;2.28;;;5.00;99.90;;;;;;5036938;28;20051;-66
2021/04/18 01:47:27;;;;;;;2.83;1.92;;;5.00;99.90;;;;;;5054651;28;20186;-70
2021/04/18 01:50:17;;;;;;;4.03;2.42;;;5.00;99.90;;;;;;5050892;28;20059;-73
2021/04/18 01:52:46;;;;;;;5.22;2.30;;;5.00;99.90;;;;;;5041772;28;20392;-69
2021/04/18 01:55:14;;;;;;;6.90;2.40;;;5.10;99.90;;;;;;5050390;28;20044;-67
2021/04/18 01:57:41;;;;;;;4.45;2.00;;;5.00;99.90;;;;;;5049804;28;20056;-68
2021/04/18 02:00:15;;;;;;;4.38;1.90;;;5.10;99.90;;;;;;5063525;28;20125;-71
2021/04/18 02:02:56;;;;;;;4.07;1.88;;;5.10;99.90;;;;;;5043662;28;20056;-70
2021/04/18 02:05:32;;;;;;;6.10;2.28;;;5.10;99.90;;;;;;5054025;28;20067;-69
2021/04/18 02:08:00;;;;;;;2.03;1.70;;;5.10;99.90;;;;;;5048782;28;20144;-66
2021/04/18 02:10:27;;;;;;;2.70;2.00;;;5.10;99.90;;;;;;5067816;28;20052;-67
2021/04/18 02:12:53;;;;;;;2.15;1.63;;;5.10;99.90;;;;;;5052362;28;20118;-73
2021/04/18 02:15:29;;;;;;;3.20;1.90;;;5.10;99.90;;;;;;5050936;28;20051;-71
2021/04/18 02:17:58;;;;;;;4.80;2.42;;;5.10;99.90;;;;;;5034428;28;20072;-68
2021/04/18 02:20:24;;;;;;;4.82;2.10;;;5.00;99.90;;;;;;5053667;28;20135;-70
2021/04/18 02:22:52;;;;;;;3.65;2.08;;;5.00;99.90;;;;;;5047500;28;20394;-72
2021/04/18 02:25:19;;;;;;;4.30;2.13;;;5.00;99.90;;;;;;5053642;28;20056;-68
2021/04/18 02:27:46;;;;;;;4.25;2.22;;;5.00;99.90;;;;;;5053408;28;20135;-68
2021/04/18 02:30:23;;;;;;;4.72;2.22;;;5.00;99.90;;;;;;5053547;28;20060;-68
2021/04/18 02:32:50;;;;;;;4.32;1.80;;;4.90;99.90;;;;;;5049512;28;20124;-66
2021/04/18 02:35:17;;;;;;;3.83;1.92;;;4.90;99.90;;;;;;5051968;28;20425;-69
2021/04/18 02:37:45;;;;;;;2.60;1.83;;;4.90;99.90;;;;;;5049951;28;20049;-65
2021/04/18 02:40:14;;;;;;;2.20;2.00;;;4.80;99.90;;;;;;5069767;28;20484;-66
2021/04/18 02:42:43;;;;;;;5.57;2.53;;;4.80;99.90;;;;;;5048586;28;20060;-72
2021/04/18 02:45:13;;;;;;;3.97;2.05;;;4.80;99.90;;;;;;5051606;28;20401;-67
2021/04/18 02:47:45;;;;;;;4.53;2.03;;;4.70;99.90;;;;;;5054795;28;20045;-64
2021/04/18 02:50:14;;;;;;;3.97;1.70;;;4.70;99.90;;;;;;5059713;28;20057;-68
2021/04/18 02:52:41;;;;;;;4.40;2.55;;;4.70;99.90;;;;;;5056559;28;20123;-66
2021/04/18 02:55:08;;;;;;;4.38;2.67;;;4.60;99.90;;;;;;5061312;28;20060;-65
2021/04/18 02:57:48;;;;;;;4.57;1.77;;;4.60;99.90;;;;;;5057404;28;20123;-67
2021/04/18 03:00:16;;;;;;;2.55;2.15;;;4.60;99.90;;;;;;5059735;28;20045;-68
2021/04/18 03:02:43;;;;;;;7.18;2.75;;;4.60;99.90;;;;;;5038188;28;20079;-66
2021/04/18 03:05:11;;;;;;;4.53;2.60;;;4.50;99.90;;;;;;5046965;28;20041;-67
2021/04/18 03:07:42;;;;;;;8.63;2.22;;;4.50;99.90;;;;;;5039209;28;20148;-65
2021/04/18 03:10:12;;;;;;;4.70;1.80;;;4.50;99.90;;;;;;5044206;28;20164;-66
2021/04/18 03:12:39;;;;;;;4.32;1.83;;;4.40;99.90;;;;;;5058586;28;20053;-71
2021/04/18 03:15:08;;;;;;;6.63;2.45;;;4.40;99.90;;;;;;5059868;28;20048;-70
2021/04/18 03:17:38;;;;;;;4.88;2.15;;;4.40;99.90;;;;;;5072725;28;20036;-66
2021/04/18 03:20:10;;;;;;;4.60;2.17;;;4.30;99.90;;;;;;5061513;28;20067;-70
2021/04/18 03:22:39;;;;;;;2.97;1.90;;;4.30;99.90;;;;;;5052159;28;20106;-67
2021/04/18 03:25:09;;;;;;;2.80;1.85;;;4.30;99.90;;;;;;5072583;28;20120;-68
2021/04/18 03:27:36;;;;;;;7.90;2.85;;;4.20;99.90;;;;;;5058811;28;20446;-69
2021/04/18 03:30:07;;;;;;;6.25;2.38;;;4.20;99.90;;;;;;5052435;28;20497;-72
2021/04/18 03:32:52;;;;;;;5.20;2.45;;;4.20;99.90;;;;;;5060561;28;20067;-67
2021/04/18 03:35:20;;;;;;;7.05;2.35;;;4.20;99.90;;;;;;5037902;28;20446;-66
2021/04/18 03:37:47;;;;;;;6.20;2.08;;;4.10;99.90;;;;;;5062151;28;20169;-67
2021/04/18 03:40:17;;;;;;;4.25;2.40;;;4.10;99.90;;;;;;5057455;28;20049;-68
2021/04/18 03:42:46;;;;;;;2.80;1.95;;;4.10;99.90;;;;;;5040994;28;20430;-69
2021/04/18 03:45:14;;;;;;;4.47;2.47;;;4.10;99.90;;;;;;5042316;28;20576;-66
2021/04/18 03:47:44;;;;;;;5.85;2.60;;;4.10;99.90;;;;;;5060927;28;20049;-67
2021/04/18 03:50:12;;;;;;;4.53;2.78;;;4.10;99.90;;;;;;5056615;28;20737;-66
2021/04/18 03:52:55;;;;;;;6.88;2.13;;;4.10;99.90;;;;;;5038434;28;20093;-68
2021/04/18 03:55:24;;;;;;;5.57;2.40;;;4.00;99.90;;;;;;5044336;28;20052;-67
2021/04/18 03:57:53;;;;;;;4.50;1.80;;;4.10;99.90;;;;;;5055207;28;20043;-65
2021/04/18 04:00:22;;;;;;;7.93;3.42;;;4.10;99.90;;;;;;5052655;28;20060;-71
2021/04/18 04:02:57;;;;;;;3.47;2.40;;;4.10;99.90;;;;;;5025259;28;20048;-65
2021/04/18 04:05:25;;;;;;;5.47;1.70;;;4.10;99.90;;;;;;5069738;28;20553;-73
2021/04/18 04:07:54;;;;;;;5.05;2.75;;;4.10;99.90;;;;;;5055615;28;20053;-73
2021/04/18 04:10:21;;;;;;;3.83;2.28;;;4.10;99.90;;;;;;5066267;28;20037;-65
2021/04/18 04:12:51;;;;;;;4.82;2.05;;;4.10;99.90;;;;;;5054121;28;20053;-66
2021/04/18 04:15:17;;;;;;;7.15;2.08;;;4.10;99.90;;;;;;5056548;28;20049;-66
2021/04/18 04:17:46;;;;;;;5.00;2.05;;;4.10;99.90;;;;;;5075938;28;20045;-68
2021/04/18 04:20:18;;;;;;;2.70;1.83;;;4.10;99.90;;;;;;5058982;28;20049;-68
2021/04/18 04:23:08;;;;;;;3.28;2.17;;;4.10;99.90;;;;;;5054376;28;20053;-67
2021/04/18 04:25:35;;;;;;;8.45;3.03;;;4.20;99.90;;;;;;5055283;28;20147;-70
2021/04/18 04:28:03;;;;;;;5.32;2.00;;;4.20;99.90;;;;;;5054031;28;20128;-65
2021/04/18 04:30:29;;;;;;;5.28;2.22;;;4.20;99.90;;;;;;5056281;28;20070;-66
2021/04/18 04:32:56;;;;;;;6.97;2.40;;;4.20;99.90;;;;;;5053096;28;20059;-68
2021/04/18 04:35:23;;;;;;;4.25;2.35;;;4.30;99.90;;;;;;5058790;28;20068;-69
2021/04/18 04:37:49;;;;;;;5.43;2.25;;;4.30;99.90;;;;;;5063697;28;20104;-68
2021/04/18 04:40:16;;;;;;;2.85;2.10;;;4.30;99.90;;;;;;5060248;28;20044;-68
2021/04/18 04:42:42;;;;;;;4.90;2.33;;;4.40;99.90;;;;;;5055638;28;20044;-67
2021/04/18 04:45:09;;;;;;;4.82;2.45;;;4.40;99.90;;;;;;5056774;28;20120;-66
2021/04/18 04:47:36;;;;;;;7.95;2.03;;;4.50;99.90;;;;;;5061541;28;20048;-69
2021/04/18 04:50:03;;;;;;;12.52;3.58;;;4.60;99.90;;;;;;5060646;28;20150;-70
2021/04/18 04:52:30;;;;;;;6.15;2.20;;;4.60;99.90;;;;;;5058162;28;20122;-64
2021/04/18 04:54:57;;;;;;;4.97;2.53;;;4.70;99.90;;;;;;5054776;28;20056;-65
2021/04/18 04:57:24;;;;;;;5.80;2.47;;;4.70;99.90;;;;;;5063227;28;20741;-66
2021/04/18 04:59:50;;;;;;;3.58;2.40;;;4.80;99.90;;;;;;5058983;28;20045;-66
2021/04/18 05:02:17;;;;;;;7.15;3.42;;;4.80;99.90;;;;;;5059646;28;20041;-66
2021/04/18 05:04:43;;;;;;;3.47;2.00;;;4.80;99.90;;;;;;5039140;28;20126;-66
2021/04/18 05:07:10;;;;;;;3.75;2.30;;;4.90;99.90;;;;;;5060750;28;20110;-67
2021/04/18 05:09:36;;;;;;;5.78;2.50;;;5.00;99.90;;;;;;5060131;28;20052;-67
2021/04/18 05:12:04;;;;;;;5.65;2.42;;;5.10;99.90;;;;;;5060304;28;20040;-68
2021/04/18 05:14:31;;;;;;;3.33;1.88;;;5.10;99.90;;;;;;5060020;28;20136;-66
2021/04/18 05:16:57;;;;;;;3.17;2.55;;;5.20;99.90;;;;;;5060596;28;20075;-68
2021/04/18 05:19:24;;;;;;;6.28;1.98;;;5.20;99.90;;;;;;5031068;28;20411;-67
2021/04/18 05:21:51;;;;;;;5.68;2.75;;;5.30;99.90;;;;;;5061663;28;20049;-71
2021/04/18 05:24:17;;;;;;;6.63;2.03;;;5.30;99.90;;;;;;5057392;28;20045;-69
2021/04/18 05:26:44;;;;;;;4.22;2.28;;;5.40;99.90;;;;;;5059368;28;20060;-68
2021/04/18 05:29:10;;;;;;;5.43;2.10;;;5.50;99.90;;;;;;5059695;28;20752;-66
2021/04/18 05:31:37;;;;;;;5.40;2.55;;;5.60;99.90;;;;;;5054239;28;20083;-66
2021/04/18 05:34:03;;;;;;;4.47;2.13;;;5.60;99.90;;;;;;5060047;28;20078;-71
2021/04/18 05:36:30;;;;;;;5.90;2.97;;;5.70;99.90;;;;;;5058480;28;20409;-67
2021/04/18 05:38:56;;;;;;;3.88;2.20;;;5.80;99.90;;;;;;5057850;28;20920;-66
2021/04/18 05:41:23;;;;;;;5.15;2.65;;;5.90;99.90;;;;;;5063130;28;20044;-65
2021/04/18 05:43:49;;;;;;;5.68;2.78;;;5.90;99.90;;;;;;5058228;28;20036;-67
2021/04/18 05:46:16;;;;;;;5.03;2.30;;;6.00;99.90;;;;;;5059902;28;20060;-67
2021/04/18 05:48:43;;;;;;;4.35;1.95;;;6.10;99.90;;;;;;5042586;28;20132;-64
2021/04/18 05:51:10;;;;;;;4.40;2.35;;;6.10;99.90;;;;;;5058575;28;20106;-69
2021/04/18 05:53:36;;;;;;;6.50;2.53;;;6.20;99.90;;;;;;5059502;28;20098;-66
2021/04/18 05:56:03;;;;;;;6.00;3.50;;;6.30;99.90;;;;;;5058864;28;20052;-70
2021/04/18 05:58:30;;;;;;;4.15;2.42;;;6.40;99.90;;;;;;5061690;28;20549;-66
2021/04/18 06:00:56;;;;;;;9.75;2.85;;;6.40;99.90;;;;;;5054088;28;20170;-66
2021/04/18 06:03:23;;;;;;;7.88;2.38;;;6.50;99.90;;;;;;5057242;28;20040;-64
2021/04/18 06:05:49;;;;;;;5.63;2.53;;;6.60;99.90;;;;;;5054115;28;20052;-69
2021/04/18 06:08:16;;;;;;;6.78;2.30;;;6.60;99.90;;;;;;5061204;28;20476;-68
2021/04/18 06:10:43;;;;;;;4.65;2.47;;;6.70;99.90;;;;;;5057548;28;20060;-65
2021/04/18 06:13:09;;;;;;;4.68;2.20;;;6.80;99.90;;;;;;5060977;28;20059;-64
2021/04/18 06:15:36;;;;;;;4.00;2.95;;;6.90;99.90;;;;;;5057118;28;20109;-67
2021/04/18 06:18:03;;;;;;;3.22;2.38;;;6.90;99.90;;;;;;5061713;28;20110;-72
2021/04/18 06:20:29;;;;;;;3.90;2.45;;;7.00;99.90;;;;;;5054708;28;20048;-64
2021/04/18 06:22:56;;;;;;;9.48;3.08;;;7.10;99.90;;;;;;5059980;28;20045;-71
2021/04/18 06:25:24;;;;;;;5.30;2.65;;;7.10;99.90;;;;;;5059955;28;20562;-66
2021/04/18 06:27:51;;;;;;;6.13;2.58;;;7.20;99.90;;;;;;5059435;28;20055;-64
2021/04/18 06:30:18;;;;;;;2.17;1.85;;;7.30;99.90;;;;;;5058337;28;20083;-68
2021/04/18 06:32:45;;;;;;;3.60;2.28;;;7.40;99.90;;;;;;5061094;28;20053;-65
2021/04/18 06:35:12;;;;;;;4.60;3.40;;;7.50;99.90;;;;;;5057268;28;20111;-65
2021/04/18 06:37:38;;;;;;;5.28;2.50;;;7.60;99.90;;;;;;5062532;28;20062;-65
2021/04/18 06:40:06;;;;;;;1.85;1.65;;;7.70;99.90;;;;;;5056242;28;20494;-68
2021/04/18 06:42:37;;;;;;;5.75;2.53;;;7.80;99.90;;;;;;5061273;28;20045;-67
2021/04/18 06:45:06;;;;;;;6.20;2.03;;;7.90;99.90;;;;;;5037498;28;20102;-65
2021/04/18 06:47:36;;;;;;;5.40;3.50;;;8.00;99.90;;;;;;5041844;28;20056;-64
2021/04/18 06:50:04;;;;;;;;;;;8.10;99.90;;;;;;5036033;28;20865;-69
2021/04/18 06:52:33;;;;;;;4.50;2.40;;;8.20;99.90;;;;;;5037421;28;19972;-69
2021/04/18 06:55:00;;;;;;;4.20;2.22;;;8.30;99.90;;;;;;5029864;28;20051;-68
2021/04/18 06:57:27;;;;;;;5.07;1.83;;;8.30;99.90;;;;;;5037928;28;20613;-67
2021/04/18 06:59:54;;;;;;;3.22;2.35;;;8.40;99.90;;;;;;5036227;28;20053;-67
2021/04/18 07:02:29;;;;;;;12.10;3.30;;;8.50;99.90;;;;;;5037974;28;20045;-69
2021/04/18 07:05:06;;;;;;;3.95;2.17;;;8.50;99.90;;;;;;5033183;28;20130;-68
2021/04/18 07:07:39;;;;;;;4.65;2.30;;;8.60;99.90;;;;;;5037273;28;20059;-69
2021/04/18 07:10:13;;;;;;;4.90;2.45;;;8.80;99.90;;;;;;5037370;28;20053;-68
2021/04/18 07:12:41;;;;;;;4.70;2.45;;;8.90;99.90;;;;;;5035441;28;20037;-68
2021/04/18 07:15:08;;;;;;;4.90;3.28;;;9.00;99.90;;;;;;5037938;28;20042;-72
2021/04/18 07:17:48;;;;;;;2.22;2.03;;;9.10;99.90;;;;;;5039291;28;20057;-71
2021/04/18 07:20:17;;;;;;;3.28;2.42;;;9.20;99.90;;;;;;5037533;28;20077;-69
2021/04/18 07:22:44;;;;;;;6.00;3.70;;;9.30;99.90;;;;;;5034819;28;20461;-70
2021/04/18 07:25:10;;;;;;;3.95;2.15;;;9.40;99.90;;;;;;5040043;28;20152;-73
2021/04/18 07:27:46;;;;;;;4.30;1.75;;;9.50;99.90;;;;;;5037808;28;20053;-73
2021/04/18 07:30:15;;;;;;;3.67;2.70;;;9.60;99.90;;;;;;5041760;28;20060;-70
2021/04/18 07:32:44;;;;;;;5.82;2.40;;;9.70;99.90;;;;;;5049961;28;20052;-70
2021/04/18 07:35:30;;;;;;;5.78;2.78;;;9.90;99.90;;;;;;5041239;28;20057;-67
2021/04/18 07:38:23;;;;;;;4.90;2.17;;;10.00;99.90;;;;;;5034191;28;20166;-68
2021/04/18 07:40:52;;;;;;;7.35;2.17;;;10.20;99.90;;;;;;5038024;28;20041;-71
2021/04/18 07:43:19;;;;;;;6.43;2.67;;;10.30;99.90;;;;;;5037222;28;20465;-71
2021/04/18 07:45:47;;;;;;;5.38;2.00;;;10.40;99.90;;;;;;5038812;28;20087;-70
2021/04/18 07:48:15;;;;;;;4.78;2.15;;;10.50;99.90;;;;;;5054559;28;20053;-70
2021/04/18 07:50:43;;;;;;;5.25;2.25;;;10.60;99.90;;;;;;5053039;28;20107;-73
2021/04/18 07:53:14;;;;;;;8.18;2.67;;;10.70;99.90;;;;;;5055391;28;20061;-68
2021/04/18 07:55:40;;;;;;;;;;;10.80;99.90;;;;;;5039398;28;20502;-68
2021/04/18 07:58:07;;;;;;;7.05;2.65;;;10.90;99.90;;;;;;5038307;28;20370;-73
2021/04/18 08:00:33;;;;;;;4.60;2.30;;;11.00;99.90;;;;;;5038694;28;20405;-71
2021/04/18 08:03:01;;;;;;;3.90;2.38;;;11.00;99.90;;;;;;5037287;28;20057;-73
2021/04/18 08:05:32;;;;;;;5.65;2.22;;;11.10;99.90;;;;;;5040520;28;20107;-70
2021/04/18 08:08:13;;;;;;;7.43;4.28;;;11.20;99.90;;;;;;5035714;28;20052;-67
2021/04/18 08:10:47;;;;;;;2.70;2.15;;;11.30;99.90;;;;;;5036199;28;20041;-68
2021/04/18 08:13:21;;;;;;;3.03;1.85;;;11.40;99.90;;;;;;5037488;28;20447;-67
2021/04/18 08:15:58;;;;;;;3.90;2.22;;;11.50;99.90;;;;;;5039181;28;20056;-67
2021/04/18 08:18:30;;;;;;;3.67;2.28;;;11.70;99.90;;;;;;5036264;28;20045;-67
2021/04/18 08:20:58;;;;;;;5.43;2.45;;;11.80;99.90;;;;;;5037519;28;20541;-68
2021/04/18 08:23:40;;;;;;;5.68;2.30;;;11.90;99.90;;;;;;5038043;28;20084;-72
2021/04/18 08:26:15;;;;;;;5.10;3.08;;;12.10;99.90;;;;;;5043239;28;20048;-68
2021/04/18 08:28:54;;;;;;;4.60;2.55;;;12.10;99.90;;;;;;5037773;28;20386;-73
2021/04/18 08:31:28;;;;;;;4.72;2.63;;;12.20;99.90;;;;;;5050722;28;20175;-67
2021/04/18 08:33:57;;;;;;;4.75;2.28;;;12.30;99.90;;;;;;5040962;28;20056;-71
2021/04/18 08:36:25;;;;;;;3.70;2.58;;;12.30;99.90;;;;;;5038881;28;20044;-68
2021/04/18 08:39:01;;;;;;;5.15;2.90;;;12.30;99.90;;;;;;5035978;28;20060;-71
2021/04/18 08:41:46;;;;;;;3.63;2.55;;;12.30;99.90;;;;;;5042128;28;20040;-68
2021/04/18 08:44:28;;;;;;;3.20;1.77;;;12.30;99.90;;;;;;5039191;28;20401;-72
2021/04/18 08:47:06;;;;;;;6.30;1.65;;;12.40;99.90;;;;;;5038185;28;20587;-68
2021/04/18 08:49:57;;;;;;;5.68;2.75;;;11.90;99.90;;;;;;5039129;28;20178;-71
2021/04/18 08:52:30;;;;;;;12.68;3.72;;;11.30;99.90;;;;;;5038937;28;20045;-69
2021/04/18 08:55:01;;;;;;;7.68;4.13;;;11.00;99.90;;;;;;5037087;28;20064;-70
2021/04/18 08:57:30;;;;;;;6.57;3.50;;;10.50;99.90;;;;;;5038879;28;20080;-68
2021/04/18 08:59:58;;;;;;;8.70;3.00;;;10.30;99.90;;;;;;5037455;28;20061;-69
2021/04/18 09:02:26;;;;;;;7.93;3.78;;;10.40;99.90;;;;;;5038799;28;20118;-67
2021/04/18 09:04:57;;;;;;;4.97;3.97;;;10.50;99.90;;;;;;5036654;28;20148;-67
2021/04/18 09:07:28;;;;;;;6.43;3.17;;;10.20;99.90;;;;;;5041874;28;20140;-69
2021/04/18 09:10:15;;;;;;;8.43;3.58;;;10.00;99.90;;;;;;5036462;28;20071;-67
2021/04/18 09:12:45;;;;;;;9.07;3.38;;;9.90;99.90;;;;;;5039038;28;20065;-69
2021/04/18 09:15:12;;;;;;;13.77;4.15;;;9.90;99.90;;;;;;5038578;28;20134;-69
2021/04/18 09:17:41;;;;;;;9.30;3.00;;;10.00;99.90;;;;;;5042646;28;20103;-68
2021/04/18 09:20:10;;;;;;;6.43;2.53;;;10.20;99.90;;;;;;5039178;28;20964;-71
2021/04/18 09:22:38;;;;;;;4.32;2.60;;;10.20;99.90;;;;;;5039989;28;20413;-68
2021/04/18 09:25:23;;;;;;;5.82;2.35;;;10.40;99.90;;;;;;5038573;28;20089;-71
2021/04/18 09:27:52;;;;;;;5.15;2.90;;;10.50;99.90;;;;;;5041361;28;20048;-67
2021/04/18 09:30:21;;;;;;;5.97;2.17;;;10.70;99.90;;;;;;5036003;28;20585;-68
2021/04/18 09:32:49;;;;;;;6.68;2.35;;;10.80;99.90;;;;;;5039576;28;20397;-69
2021/04/18 09:35:20;;;;;;;5.10;2.20;;;10.70;99.90;;;;;;5036004;28;20049;-67
2021/04/18 09:37:55;;;;;;;7.70;2.75;;;10.80;99.90;;;;;;5040011;28;20040;-70
2021/04/18 09:40:24;;;;;;;3.67;2.70;;;10.90;99.90;;;;;;5035299;28;20045;-67
2021/04/18 09:42:52;;;;;;;2.50;2.05;;;10.90;99.90;;;;;;5043427;28;20517;-69
2021/04/18 09:45:22;;;;;;;7.45;2.10;;;10.80;99.90;;;;;;5034617;28;20453;-70
2021/04/18 09:47:54;;;;;;;5.32;1.77;;;10.90;99.90;;;;;;5040730;28;20064;-67
2021/04/18 09:50:32;;;;;;;5.95;3.25;;;10.80;99.90;;;;;;5038981;28;20131;-68
2021/04/18 09:53:13;;;;;;;3.40;2.22;;;10.80;99.90;;;;;;5039493;28;20048;-67
2021/04/18 09:55:50;;;;;;;8.63;3.20;;;10.70;99.90;;;;;;5036696;28;20480;-70
2021/04/18 09:58:41;;;;;;;7.30;2.40;;;10.60;99.90;;;;;;5042088;28;20090;-71
2021/04/18 10:01:24;;;;;;;9.73;4.72;;;10.60;99.90;;;;;;5035628;28;20049;-72
2021/04/18 10:03:52;;;;;;;7.05;2.88;;;10.80;99.90;;;;;;5041467;28;20051;-67
2021/04/18 10:06:19;;;;;;;5.32;2.28;;;11.00;99.90;;;;;;5037639;28;20140;-67
2021/04/18 10:08:57;;;;;;;6.43;2.00;;;11.10;99.90;;;;;;5038485;28;20457;-67
2021/04/18 10:11:23;;;;;;;6.70;3.55;;;11.30;99.90;;;;;;5036595;28;20049;-69
2021/04/18 10:13:56;;;;;;;3.45;1.95;;;11.30;99.90;;;;;;5040256;28;20068;-68
2021/04/18 10:16:34;;;;;;;6.13;2.47;;;11.40;99.90;;;;;;5037762;28;20766;-72
2021/04/18 10:19:19;;;;;;;7.72;3.47;;;11.20;99.90;;;;;;5040341;28;20099;-74
2021/04/18 10:22:10;;;;;;;8.10;3.97;;;11.10;99.90;;;;;;5035413;28;20045;-67
2021/04/18 10:24:50;;;;;;;6.80;2.65;;;11.30;99.90;;;;;;5036120;28;20139;-70
2021/04/18 10:27:24;;;;;;;4.57;2.03;;;11.30;99.90;;;;;;5028251;28;20661;-73
2021/04/18 10:29:51;;;;;;;7.43;1.90;;;11.40;99.90;;;;;;5045741;28;20073;-71
2021/04/18 10:32:19;;;;;;;4.43;2.78;;;11.30;99.90;;;;;;5037292;28;20490;-69
2021/04/18 10:34:48;;;;;;;5.40;2.20;;;11.20;99.90;;;;;;5041888;28;20128;-73
2021/04/18 10:37:15;;;;;;;6.90;2.40;;;10.90;99.90;;;;;;5038537;28;20610;-73
2021/04/18 10:40:01;;;;;;;3.28;2.30;;;10.90;99.90;;;;;;5040726;28;20065;-73
2021/04/18 10:42:28;;;;;;;5.97;1.55;;;11.10;99.90;;;;;;5040407;28;20243;-70
2021/04/18 10:44:54;;;;;;;5.47;3.30;;;11.20;99.90;;;;;;5036875;28;20045;-68
2021/04/18 10:47:21;;;;;;;8.95;2.35;;;11.40;99.90;;;;;;5041296;28;20088;-70
2021/04/18 10:49:49;;;;;;;3.17;1.90;;;11.60;99.90;;;;;;5052763;28;20438;-69
2021/04/18 10:52:17;;;;;;;6.22;1.83;;;11.70;99.90;;;;;;5046664;28;20094;-68
2021/04/18 10:54:43;;;;;;;3.80;2.05;;;11.90;99.90;;;;;;5038568;28;20110;-70
2021/04/18 10:57:10;;;;;;;5.53;2.10;;;12.00;99.90;;;;;;5042233;28;20057;-69
2021/04/18 10:59:36;;;;;;;6.75;1.90;;;12.10;99.90;;;;;;5039859;28;20072;-70
2021/04/18 11:02:03;;;;;;;7.65;2.47;;;12.20;99.90;;;;;;5042510;28;20041;-68
2021/04/18 11:04:29;;;;;;;2.65;1.75;;;12.20;99.90;;;;;;5046830;28;20048;-67
2021/04/18 11:06:56;;;;;;;3.05;1.58;;;12.50;99.90;;;;;;5037952;28;20142;-71
2021/04/18 11:09:22;;;;;;;6.97;3.03;;;12.60;99.90;;;;;;5042214;28;20044;-69
2021/04/18 11:11:49;;;;;;;4.47;2.20;;;12.70;99.90;;;;;;5037498;28;20383;-69
2021/04/18 11:14:15;;;;;;;5.20;2.20;;;12.70;99.90;;;;;;5043025;28;20110;-68
2021/04/18 11:16:42;;;;;;;6.88;1.92;;;12.90;99.90;;;;;;5039207;28;20363;-68
2021/04/18 11:19:08;;;;;;;5.60;2.25;;;12.90;99.90;;;;;;5041499;28;20131;-67
2021/04/18 11:21:36;;;;;;;5.70;1.77;;;12.80;99.90;;;;;;5029087;28;20575;-70
2021/04/18 11:24:02;;;;;;;6.55;2.05;;;12.50;99.90;;;;;;5050845;28;20069;-71
2021/04/18 11:26:29;;;;;;;7.93;3.05;;;12.20;99.90;;;;;;5053698;28;20041;-68
2021/04/18 11:28:56;;;;;;;7.63;2.67;;;11.60;99.90;;;;;;5037035;28;20080;-70
2021/04/18 11:31:23;;;;;;;2.53;1.50;;;11.20;99.90;;;;;;5041159;28;20053;-68
2021/04/18 11:33:50;;;;;;;5.28;3.15;;;10.70;99.90;;;;;;5041507;28;20765;-70
2021/04/18 11:36:18;;;;;;;5.47;2.00;;;10.60;99.90;;;;;;5038265;28;20049;-68
2021/04/18 11:38:46;;;;;;;6.38;2.03;;;10.80;99.90;;;;;;5039259;28;20066;-69
2021/04/18 11:41:28;;;;;;;4.88;2.42;;;10.70;99.90;;;;;;5038487;28;20037;-70
2021/04/18 11:43:54;;;;;;;4.55;2.70;;;10.80;99.90;;;;;;5040693;28;20056;-69
2021/04/18 11:46:21;;;;;;;4.63;1.98;;;10.90;99.90;;;;;;5039385;28;20451;-67
2021/04/18 11:48:47;;;;;;;4.95;2.25;;;11.00;99.90;;;;;;5039376;28;20040;-68
2021/04/18 11:51:15;;;;;;;9.88;2.85;;;11.10;99.90;;;;;;5042747;28;20141;-68
2021/04/18 11:53:41;;;;;;;7.40;3.25;;;11.30;99.90;;;;;;5041963;28;20177;-67
2021/04/18 11:56:08;;;;;;;4.85;1.90;;;11.40;99.90;;;;;;5054881;28;20211;-72
2021/04/18 11:58:35;;;;;;;13.70;2.00;;;11.50;99.90;;;;;;5044676;28;20961;-68
2021/04/18 12:01:02;;;;;;;7.95;2.38;;;11.40;99.90;;;;;;5045863;28;20044;-70
2021/04/18 12:03:28;;;;;;;6.82;2.75;;;11.40;99.90;;;;;;5043897;28;20503;-68
2021/04/18 12:05:56;;;;;;;8.73;2.22;;;11.70;99.90;;;;;;5041624;28;20138;-72
2021/04/18 12:08:23;;;;;;;5.38;2.25;;;11.70;99.90;;;;;;5040484;28;20128;-70
2021/04/18 12:10:50;;;;;;;7.43;2.10;;;11.80;99.90;;;;;;5043839;28;20444;-71
2021/04/18 12:13:16;;;;;;;13.93;3.25;;;11.80;99.90;;;;;;5042365;28;20044;-74
2021/04/18 12:15:46;;;;;;;3.35;1.95;;;11.40;99.90;;;;;;5043453;28;20067;-70
2021/04/18 12:18:13;;;;;;;12.63;2.92;;;11.20;99.90;;;;;;5039505;28;20064;-69
2021/04/18 12:20:39;;;;;;;7.10;2.75;;;10.90;99.90;;;;;;5039439;28;20126;-67
2021/04/18 12:23:06;;;;;;;2.45;2.17;;;10.90;99.90;;;;;;5041200;28;20067;-69
2021/04/18 12:25:33;;;;;;;10.55;3.45;;;10.90;99.90;;;;;;5042197;28;20049;-67
2021/04/18 12:27:59;;;;;;;13.05;2.90;;;10.80;99.90;;;;;;5054398;28;20168;-69
2021/04/18 12:30:26;;;;;;;7.43;2.70;;;10.50;99.90;;;;;;5060072;28;20057;-67
2021/04/18 12:32:52;;;;;;;8.32;2.53;;;10.50;99.90;;;;;;5051068;28;20057;-74
2021/04/18 12:35:19;;;;;;;9.80;2.65;;;10.30;99.90;;;;;;5051701;28;20056;-70
2021/04/18 12:37:46;;;;;;;7.55;2.65;;;10.40;99.90;;;;;;5059461;28;20064;-67
2021/04/18 12:40:13;;;;;;;11.55;3.22;;;10.40;99.90;;;;;;5033877;28;20424;-69
2021/04/18 12:42:39;;;;;;;9.77;2.90;;;10.50;99.90;;;;;;5037659;28;20051;-70
2021/04/18 12:45:07;;;;;;;9.43;3.03;;;10.60;99.90;;;;;;5033371;28;20089;-68
2021/04/18 12:47:34;;;;;;;3.72;2.30;;;10.70;99.90;;;;;;5040069;28;20041;-68
2021/04/18 12:50:03;;;;;;;8.68;2.20;;;11.00;99.90;;;;;;5038149;28;20164;-64
2021/04/18 12:52:30;;;;;;;9.50;2.70;;;11.30;99.90;;;;;;5037669;28;20035;-69
2021/04/18 12:54:57;;;;;;;9.05;2.80;;;11.30;99.90;;;;;;5041956;28;20084;-70
2021/04/18 12:57:25;;;;;;;3.95;3.42;;;11.20;99.90;;;;;;5040058;28;20052;-65
2021/04/18 12:59:54;;;;;;;4.03;1.95;;;11.20;99.90;;;;;;5038495;28;20045;-66
2021/04/18 13:02:29;;;;;;;4.22;2.13;;;11.10;99.90;;;;;;5039719;28;20152;-67
2021/04/18 13:05:00;;;;;;;6.40;2.30;;;11.10;99.90;;;;;;5044777;28;20103;-67